Time;durP1;ratioP1;P1;durP2;ratioP2;P2;SDS_P1;SDS_P2;PMS_P1;PMS_P2;Temp;Humidity;BMP_temperature;BMP_pressure;BME280_temperature;BME280_humidity;BME280_pressure;Samples;Min_cycle;Max_cycle;Signal;HPM_P1;HPM_P2
2024/01/16 00:01:42;;;;;;;;;;;;;;;;;;5022961;28;19966;-69
2024/01/16 00:04:07;;;;;;;;;;;;;;;;;;5021193;28;20019;-68
2024/01/16 00:06:33;;;;;;;;;;;;;;;;;;5020412;28;19920;-69
2024/01/16 00:08:58;;;;;;;;;;;;;;;;;;5021551;28;19928;-69
2024/01/16 00:11:26;;;;;;;;;;;;;;;;;;5004183;28;20019;-71
2024/01/16 00:13:53;;;;;;;;;;;;;;;;;;5017208;28;20351;-68
2024/01/16 00:16:19;;;;;;;;;;;;;;;;;;5020793;28;19917;-68
2024/01/16 00:18:44;;;;;;;;;;;;;;;;;;5021009;28;20430;-70
2024/01/16 00:21:09;;;;;;;;;;;;;;;;;;5023038;28;20597;-70
2024/01/16 00:23:35;;;;;;;;;;;;;;;;;;5005930;28;20202;-70
2024/01/16 00:26:00;;;;;;;;;;;;;;;;;;5035925;28;19919;-69
2024/01/16 00:28:26;;;;;;;;;;;;;;;;;;5021253;28;19921;-68
2024/01/16 00:30:51;;;;;;;;;;;;;;;;;;5020924;28;19978;-70
2024/01/16 00:33:17;;;;;;;;;;;;;;;;;;5051672;28;19930;-70
2024/01/16 00:35:44;;;;;;;;;;;;;;;;;;5019881;28;19921;-70
2024/01/16 00:38:10;;;;;;;;;;;;;;;;;;5019459;28;19928;-70
2024/01/16 00:40:35;;;;;;;;;;;;;;;;;;5055375;28;20281;-70
2024/01/16 00:43:01;;;;;;;;;;;;;;;;;;5019355;28;19924;-70
2024/01/16 00:45:30;;;;;;;;;;;;;;;;;;5052792;28;19920;-70
2024/01/16 00:47:55;;;;;;;;;;;;;;;;;;5036409;28;20469;-70
2024/01/16 00:50:20;;;;;;;;;;;;;;;;;;5053744;28;20020;-70
2024/01/16 00:52:46;;;;;;;;;;;;;;;;;;5052616;28;19916;-70
2024/01/16 00:55:14;;;;;;;;;;;;;;;;;;5019340;28;19939;-70
2024/01/16 00:57:39;;;;;;;;;;;;;;;;;;5020823;28;20392;-70
2024/01/16 01:00:09;;;;;;;;;;;;;;;;;;5002527;28;20394;-69
2024/01/16 01:02:38;;;;;;;;;;;;;;;;;;5019934;28;20412;-69
2024/01/16 01:05:06;;;;;;;;;;;;;;;;;;5019314;28;20675;-70
2024/01/16 01:07:33;;;;;;;;;;;;;;;;;;5022567;28;19928;-70
2024/01/16 01:09:59;;;;;;;;;;;;;;;;;;5018774;28;19920;-69
2024/01/16 01:12:24;;;;;;;;;;;;;;;;;;5019390;28;19981;-69
2024/01/16 01:14:52;;;;;;;;;;;;;;;;;;5035267;28;19986;-69
2024/01/16 01:17:23;;;;;;;;;;;;;;;;;;5034086;28;19913;-69
2024/01/16 01:19:48;;;;;;;;;;;;;;;;;;5020290;28;19913;-71
2024/01/16 01:22:13;;;;;;;;;;;;;;;;;;5020613;28;19970;-71
2024/01/16 01:24:38;;;;;;;;;;;;;;;;;;5037670;28;19924;-70
2024/01/16 01:30:23;;;;;;;;;;;;;;;;;;5021215;28;19923;-70
2024/01/16 01:32:48;;;;;;;;;;;;;;;;;;5000997;28;19921;-71
2024/01/16 01:35:14;;;;;;;;;;;;;;;;;;5003304;28;19983;-70
2024/01/16 01:37:40;;;;;;;;;;;;;;;;;;5022013;28;19996;-71
2024/01/16 01:40:12;;;;;;;;;;;;;;;;;;5036819;28;19993;-70
2024/01/16 01:42:43;;;;;;;;;;;;;;;;;;5036194;28;19956;-69
2024/01/16 01:45:08;;;;;;;;;;;;;;;;;;5035250;28;19929;-68
2024/01/16 01:47:33;;;;;;;;;;;;;;;;;;5021152;28;19917;-74
2024/01/16 01:49:59;;;;;;;;;;;;;;;;;;5001678;28;19928;-70
2024/01/16 01:52:24;;;;;;;;;;;;;;;;;;5034906;28;21575;-69
2024/01/16 01:54:52;;;;;;;;;;;;;;;;;;5001961;28;19917;-70
2024/01/16 01:57:17;;;;;;;;;;;;;;;;;;5018000;28;19917;-68
2024/01/16 01:59:46;;;;;;;;;;;;;;;;;;5012865;28;19967;-73
2024/01/16 02:02:11;;;;;;;;;;;;;;;;;;5036379;28;19917;-77
2024/01/16 02:04:37;;;;;;;;;;;;;;;;;;5010478;28;19921;-69
2024/01/16 02:07:03;;;;;;;;;;;;;;;;;;5020079;28;19924;-71
2024/01/16 02:09:32;;;;;;;;;;;;;;;;;;5035665;28;19917;-70
2024/01/16 02:11:59;;;;;;;;;;;;;;;;;;5053362;28;19921;-70
2024/01/16 02:14:25;;;;;;;;;;;;;;;;;;5017565;28;19921;-70
2024/01/16 02:16:52;;;;;;;;;;;;;;;;;;5016930;28;20197;-71
2024/01/16 02:19:20;;;;;;;;;;;;;;;;;;5019605;28;19917;-70
2024/01/16 02:21:48;;;;;;;;;;;;;;;;;;5035949;28;19979;-71
2024/01/16 02:24:14;;;;;;;;;;;;;;;;;;5017866;28;20427;-70
2024/01/16 02:26:39;;;;;;;;;;;;;;;;;;5019222;28;19999;-70
2024/01/16 02:29:04;;;;;;;;;;;;;;;;;;5001748;28;19916;-70
2024/01/16 02:31:32;;;;;;;;;;;;;;;;;;5034961;28;19921;-70
2024/01/16 02:37:28;;;;;;;;;;;;;;;;;;5021825;28;19996;-69
2024/01/16 02:39:54;;;;;;;;;;;;;;;;;;5019862;28;19921;-70
2024/01/16 02:42:19;;;;;;;;;;;;;;;;;;5020195;28;19925;-71
2024/01/16 02:44:44;;;;;;;;;;;;;;;;;;5019313;28;19926;-70
2024/01/16 02:47:12;;;;;;;;;;;;;;;;;;5023500;28;19957;-69
2024/01/16 02:49:37;;;;;;;;;;;;;;;;;;5020521;28;20059;-71
2024/01/16 02:52:03;;;;;;;;;;;;;;;;;;5019565;28;19925;-70
2024/01/16 02:54:31;;;;;;;;;;;;;;;;;;5022442;28;21491;-69
2024/01/16 02:57:02;;;;;;;;;;;;;;;;;;5020785;28;19927;-69
2024/01/16 02:59:30;;;;;;;;;;;;;;;;;;5021638;28;19996;-69
2024/01/16 03:01:59;;;;;;;;;;;;;;;;;;5035217;28;19922;-70
2024/01/16 03:04:27;;;;;;;;;;;;;;;;;;5002695;28;19967;-70
2024/01/16 03:06:55;;;;;;;;;;;;;;;;;;5005823;28;19979;-69
2024/01/16 03:09:21;;;;;;;;;;;;;;;;;;5038483;28;20664;-70
2024/01/16 03:11:46;;;;;;;;;;;;;;;;;;5005670;28;20344;-70
2024/01/16 03:14:14;;;;;;;;;;;;;;;;;;5023446;28;19928;-70
2024/01/16 03:16:42;;;;;;;;;;;;;;;;;;5022586;28;20011;-69
2024/01/16 03:19:12;;;;;;;;;;;;;;;;;;5035901;28;20264;-69
2024/01/16 03:21:41;;;;;;;;;;;;;;;;;;5024678;28;19921;-70
2024/01/16 03:24:10;;;;;;;;;;;;;;;;;;5022310;28;20178;-70
2024/01/16 03:26:35;;;;;;;;;;;;;;;;;;5020096;28;20050;-69
2024/01/16 03:29:01;;;;;;;;;;;;;;;;;;5021002;28;19952;-69
2024/01/16 03:31:26;;;;;;;;;;;;;;;;;;5037447;28;19974;-69
2024/01/16 03:33:54;;;;;;;;;;;;;;;;;;5019990;28;19921;-69
2024/01/16 03:36:21;;;;;;;;;;;;;;;;;;5054531;28;19923;-69
2024/01/16 03:38:47;;;;;;;;;;;;;;;;;;5019382;28;20008;-70
2024/01/16 03:41:12;;;;;;;;;;;;;;;;;;5020685;28;20091;-70
2024/01/16 03:43:37;;;;;;;;;;;;;;;;;;5038787;28;20036;-67
2024/01/16 03:46:05;;;;;;;;;;;;;;;;;;5022557;28;19964;-69
2024/01/16 03:48:30;;;;;;;;;;;;;;;;;;5023379;28;19917;-69
2024/01/16 03:50:56;;;;;;;;;;;;;;;;;;5022773;28;19933;-69
2024/01/16 03:53:24;;;;;;;;;;;;;;;;;;5039606;28;19921;-69
2024/01/16 03:55:52;;;;;;;;;;;;;;;;;;5004342;28;20043;-69
2024/01/16 03:58:20;;;;;;;;;;;;;;;;;;5006480;28;20448;-69
2024/01/16 04:00:54;;;;;;;;;;;;;;;;;;5005677;28;19927;-69
2024/01/16 04:03:19;;;;;;;;;;;;;;;;;;5023938;28;19917;-69
2024/01/16 04:05:44;;;;;;;;;;;;;;;;;;5022863;28;20356;-68
2024/01/16 04:08:13;;;;;;;;;;;;;;;;;;5021976;28;19931;-69
2024/01/16 04:10:41;;;;;;;;;;;;;;;;;;5018984;28;19928;-70
2024/01/16 04:13:07;;;;;;;;;;;;;;;;;;5018051;28;19917;-69
2024/01/16 04:15:35;;;;;;;;;;;;;;;;;;5021430;28;19921;-68
2024/01/16 04:18:03;;;;;;;;;;;;;;;;;;5019707;28;20006;-68
2024/01/16 04:20:28;;;;;;;;;;;;;;;;;;5023008;28;19921;-68
2024/01/16 04:22:56;;;;;;;;;;;;;;;;;;5012981;28;19920;-68
2024/01/16 04:25:30;;;;;;;;;;;;;;;;;;5021901;28;19971;-67
2024/01/16 04:27:58;;;;;;;;;;;;;;;;;;5013659;28;19921;-67
2024/01/16 04:30:23;;;;;;;;;;;;;;;;;;5022631;28;19948;-69
2024/01/16 04:32:49;;;;;;;;;;;;;;;;;;5037036;28;19925;-67
2024/01/16 04:35:14;;;;;;;;;;;;;;;;;;5019488;28;19920;-68
2024/01/16 04:37:40;;;;;;;;;;;;;;;;;;5022378;28;19917;-67
2024/01/16 04:40:05;;;;;;;;;;;;;;;;;;5004366;28;20319;-68
2024/01/16 04:42:33;;;;;;;;;;;;;;;;;;5036686;28;19921;-69
2024/01/16 04:44:58;;;;;;;;;;;;;;;;;;5018906;28;19928;-68
2024/01/16 04:47:24;;;;;;;;;;;;;;;;;;5013142;28;19916;-69
2024/01/16 04:49:54;;;;;;;;;;;;;;;;;;5054946;28;19987;-66
2024/01/16 04:52:20;;;;;;;;;;;;;;;;;;5019297;28;20830;-68
2024/01/16 04:54:47;;;;;;;;;;;;;;;;;;5019625;28;19947;-68
2024/01/16 04:57:15;;;;;;;;;;;;;;;;;;5019936;28;20056;-67
2024/01/16 04:59:41;;;;;;;;;;;;;;;;;;5021505;28;19921;-67
2024/01/16 05:02:09;;;;;;;;;;;;;;;;;;5022299;28;19994;-67
2024/01/16 05:04:34;;;;;;;;;;;;;;;;;;5020719;28;19971;-67
2024/01/16 05:07:03;;;;;;;;;;;;;;;;;;5019022;28;19930;-67
2024/01/16 05:09:28;;;;;;;;;;;;;;;;;;5036514;28;20375;-68
2024/01/16 05:11:54;;;;;;;;;;;;;;;;;;5020299;28;19921;-68
2024/01/16 05:14:19;;;;;;;;;;;;;;;;;;5020444;28;19972;-68
2024/01/16 05:16:44;;;;;;;;;;;;;;;;;;5021872;28;19928;-66
2024/01/16 05:19:13;;;;;;;;;;;;;;;;;;5019543;28;19917;-68
2024/01/16 05:21:41;;;;;;;;;;;;;;;;;;5003048;28;20286;-67
2024/01/16 05:24:06;;;;;;;;;;;;;;;;;;5004297;28;19921;-67
2024/01/16 05:26:36;;;;;;;;;;;;;;;;;;5019324;28;19943;-66
2024/01/16 05:29:02;;;;;;;;;;;;;;;;;;5015911;28;19990;-67
2024/01/16 05:31:30;;;;;;;;;;;;;;;;;;5053582;28;19927;-67
2024/01/16 05:33:55;;;;;;;;;;;;;;;;;;5004849;28;19917;-67
2024/01/16 05:36:21;;;;;;;;;;;;;;;;;;5020460;28;19990;-66
2024/01/16 05:38:46;;;;;;;;;;;;;;;;;;5019537;28;19967;-66
2024/01/16 05:41:14;;;;;;;;;;;;;;;;;;5022224;28;19921;-65
2024/01/16 05:43:42;;;;;;;;;;;;;;;;;;5013370;28;20874;-66
2024/01/16 05:46:08;;;;;;;;;;;;;;;;;;5022791;28;20429;-68
2024/01/16 05:48:33;;;;;;;;;;;;;;;;;;5022339;28;20782;-67
2024/01/16 05:51:01;;;;;;;;;;;;;;;;;;5037581;28;20307;-67
2024/01/16 05:53:30;;;;;;;;;;;;;;;;;;5020916;28;19921;-67
2024/01/16 05:55:58;;;;;;;;;;;;;;;;;;5035924;28;20406;-68
2024/01/16 05:58:23;;;;;;;;;;;;;;;;;;5019050;28;19917;-68
2024/01/16 06:00:51;;;;;;;;;;;;;;;;;;5001246;28;20375;-67
2024/01/16 06:03:19;;;;;;;;;;;;;;;;;;5003319;28;20059;-68
2024/01/16 06:05:44;;;;;;;;;;;;;;;;;;5019148;28;19928;-68
2024/01/16 06:08:09;;;;;;;;;;;;;;;;;;5019608;28;19952;-68
2024/01/16 06:10:34;;;;;;;;;;;;;;;;;;5019000;28;19916;-68
2024/01/16 06:13:00;;;;;;;;;;;;;;;;;;5013641;28;19923;-68
2024/01/16 06:15:25;;;;;;;;;;;;;;;;;;5034361;28;20004;-69
2024/01/16 06:17:50;;;;;;;;;;;;;;;;;;5018726;28;19917;-68
2024/01/16 06:20:15;;;;;;;;;;;;;;;;;;5003884;28;19917;-67
2024/01/16 06:22:44;;;;;;;;;;;;;;;;;;5022498;28;19928;-68
2024/01/16 06:25:09;;;;;;;;;;;;;;;;;;5021965;28;20361;-67
2024/01/16 06:27:34;;;;;;;;;;;;;;;;;;5019699;28;19932;-68
2024/01/16 06:29:59;;;;;;;;;;;;;;;;;;5053390;28;19916;-68
2024/01/16 06:32:27;;;;;;;;;;;;;;;;;;5021721;28;20627;-67
2024/01/16 06:34:53;;;;;;;;;;;;;;;;;;5020139;28;20265;-68
2024/01/16 06:37:18;;;;;;;;;;;;;;;;;;5019888;28;19956;-68
2024/01/16 06:39:44;;;;;;;;;;;;;;;;;;5035545;28;20004;-69
2024/01/16 06:42:09;;;;;;;;;;;;;;;;;;5025589;28;19923;-67
2024/01/16 06:44:34;;;;;;;;;;;;;;;;;;5024120;28;20396;-68
2024/01/16 06:47:02;;;;;;;;;;;;;;;;;;5026083;28;20388;-69
2024/01/16 06:49:27;;;;;;;;;;;;;;;;;;5006071;28;19928;-69
2024/01/16 06:51:57;;;;;;;;;;;;;;;;;;5059265;28;19932;-69
2024/01/16 06:54:23;;;;;;;;;;;;;;;;;;5040647;28;20410;-68
2024/01/16 06:56:48;;;;;;;;;;;;;;;;;;5021906;28;19921;-68
2024/01/16 06:59:18;;;;;;;;;;;;;;;;;;5024371;28;20387;-68
2024/01/16 07:01:44;;;;;;;;;;;;;;;;;;5041970;28;19928;-68
2024/01/16 07:04:14;;;;;;;;;;;;;;;;;;5025953;28;20019;-69
2024/01/16 07:06:43;;;;;;;;;;;;;;;;;;5011633;28;19920;-67
2024/01/16 07:12:27;;;;;;;;;;;;;;;;;;5025151;28;19972;-65
2024/01/16 07:14:52;;;;;;;;;;;;;;;;;;5040699;28;19929;-70
2024/01/16 07:17:18;;;;;;;;;;;;;;;;;;5006012;28;19916;-70
2024/01/16 07:19:44;;;;;;;;;;;;;;;;;;5024836;28;19943;-68
2024/01/16 07:22:09;;;;;;;;;;;;;;;;;;5038088;28;19935;-69
2024/01/16 07:24:34;;;;;;;;;;;;;;;;;;5026508;28;20218;-70
2024/01/16 07:27:00;;;;;;;;;;;;;;;;;;5020637;28;19917;-69
2024/01/16 07:29:25;;;;;;;;;;;;;;;;;;5007949;28;19921;-69
2024/01/16 07:31:52;;;;;;;;;;;;;;;;;;5023406;28;19927;-68
2024/01/16 07:34:21;;;;;;;;;;;;;;;;;;5041591;28;19920;-69
2024/01/16 07:36:47;;;;;;;;;;;;;;;;;;5023633;28;19917;-68
2024/01/16 07:39:12;;;;;;;;;;;;;;;;;;5023866;28;19917;-69
2024/01/16 07:41:37;;;;;;;;;;;;;;;;;;5039369;28;19921;-68
2024/01/16 07:44:03;;;;;;;;;;;;;;;;;;5008806;28;20358;-69
2024/01/16 07:46:28;;;;;;;;;;;;;;;;;;5023965;28;19921;-68
2024/01/16 07:48:56;;;;;;;;;;;;;;;;;;5009125;28;19921;-70
2024/01/16 07:51:21;;;;;;;;;;;;;;;;;;5024761;28;19925;-69
2024/01/16 07:53:51;;;;;;;;;;;;;;;;;;5025319;28;19951;-69
2024/01/16 07:56:17;;;;;;;;;;;;;;;;;;5026833;28;19921;-69
2024/01/16 07:58:42;;;;;;;;;;;;;;;;;;5022638;28;19985;-69
2024/01/16 08:01:07;;;;;;;;;;;;;;;;;;5038531;28;20567;-70
2024/01/16 08:03:33;;;;;;;;;;;;;;;;;;5006772;28;19939;-70
2024/01/16 08:05:59;;;;;;;;;;;;;;;;;;5027345;28;19924;-69
2024/01/16 08:08:24;;;;;;;;;;;;;;;;;;5022646;28;20625;-70
2024/01/16 08:10:49;;;;;;;;;;;;;;;;;;5017162;28;19924;-70
2024/01/16 08:13:14;;;;;;;;;;;;;;;;;;5023677;28;19925;-69
2024/01/16 08:15:40;;;;;;;;;;;;;;;;;;5006928;28;20379;-69
2024/01/16 08:18:05;;;;;;;;;;;;;;;;;;5024029;28;19921;-69
2024/01/16 08:20:30;;;;;;;;;;;;;;;;;;5025605;28;20291;-69
2024/01/16 08:22:56;;;;;;;;;;;;;;;;;;5020869;28;20037;-69
2024/01/16 08:25:21;;;;;;;;;;;;;;;;;;5022859;28;20021;-69
2024/01/16 08:27:46;;;;;;;;;;;;;;;;;;5023011;28;19921;-69
2024/01/16 08:30:12;;;;;;;;;;;;;;;;;;5022068;28;19925;-69
2024/01/16 08:35:30;;;;;;;;;;;;;;;;;;5036205;28;20273;-69
2024/01/16 08:37:56;;;;;;;;;;;;;;;;;;5039484;28;19920;-68
2024/01/16 08:40:23;;;;;;;;;;;;;;;;;;5026726;28;20527;-68
2024/01/16 08:42:54;;;;;;;;;;;;;;;;;;5023625;28;20376;-69
2024/01/16 08:45:19;;;;;;;;;;;;;;;;;;5038658;28;20042;-68
2024/01/16 08:47:45;;;;;;;;;;;;;;;;;;5025354;28;20055;-69
2024/01/16 08:50:10;;;;;;;;;;;;;;;;;;5025127;28;19917;-68
2024/01/16 08:52:35;;;;;;;;;;;;;;;;;;5008058;28;19921;-69
2024/01/16 08:55:00;;;;;;;;;;;;;;;;;;5022598;28;19921;-69
2024/01/16 08:57:28;;;;;;;;;;;;;;;;;;5040856;28;19929;-68
2024/01/16 09:03:13;;;;;;;;;;;;;;;;;;5024718;28;19928;-68
2024/01/16 09:05:38;;;;;;;;;;;;;;;;;;5024944;28;21432;-68
2024/01/16 09:08:04;;;;;;;;;;;;;;;;;;5023754;28;19921;-68
2024/01/16 09:10:32;;;;;;;;;;;;;;;;;;5041776;28;20505;-69
2024/01/16 09:12:57;;;;;;;;;;;;;;;;;;5005317;28;19921;-68
2024/01/16 09:15:22;;;;;;;;;;;;;;;;;;5039154;28;19943;-69
2024/01/16 09:17:47;;;;;;;;;;;;;;;;;;5022070;28;19917;-69
2024/01/16 09:20:13;;;;;;;;;;;;;;;;;;5036514;28;19917;-68
2024/01/16 09:22:38;;;;;;;;;;;;;;;;;;5020522;28;20336;-68
2024/01/16 09:25:06;;;;;;;;;;;;;;;;;;5023407;28;19991;-70
2024/01/16 09:27:31;;;;;;;;;;;;;;;;;;5022614;28;19921;-70
2024/01/16 09:29:57;;;;;;;;;;;;;;;;;;5038877;28;19983;-71
2024/01/16 09:32:24;;;;;;;;;;;;;;;;;;5023016;28;19948;-70
2024/01/16 09:34:49;;;;;;;;;;;;;;;;;;5014304;28;20601;-70
2024/01/16 09:37:15;;;;;;;;;;;;;;;;;;5023415;28;20066;-71
2024/01/16 09:39:41;;;;;;;;;;;;;;;;;;5052003;28;19928;-70
2024/01/16 09:42:08;;;;;;;;;;;;;;;;;;5022667;28;19921;-71
2024/01/16 09:44:37;;;;;;;;;;;;;;;;;;5021715;28;20195;-70
2024/01/16 09:47:05;;;;;;;;;;;;;;;;;;5020943;28;20656;-71
2024/01/16 09:49:30;;;;;;;;;;;;;;;;;;5036945;28;19917;-72
2024/01/16 09:51:59;;;;;;;;;;;;;;;;;;5006552;28;19928;-71
2024/01/16 09:54:24;;;;;;;;;;;;;;;;;;5023086;28;20676;-71
2024/01/16 09:56:49;;;;;;;;;;;;;;;;;;5022167;28;19921;-71
2024/01/16 09:59:15;;;;;;;;;;;;;;;;;;5019918;28;20364;-70
2024/01/16 10:01:41;;;;;;;;;;;;;;;;;;5022888;28;20008;-71
2024/01/16 10:04:06;;;;;;;;;;;;;;;;;;5054203;28;20454;-70
2024/01/16 10:06:31;;;;;;;;;;;;;;;;;;5024537;28;19916;-73
2024/01/16 10:08:57;;;;;;;;;;;;;;;;;;5003921;28;20320;-72
2024/01/16 10:11:24;;;;;;;;;;;;;;;;;;5006865;28;20123;-75
2024/01/16 10:13:52;;;;;;;;;;;;;;;;;;5021395;28;20190;-75
2024/01/16 10:16:17;;;;;;;;;;;;;;;;;;5037934;28;19916;-72
2024/01/16 10:18:43;;;;;;;;;;;;;;;;;;5022939;28;20391;-71
2024/01/16 10:21:09;;;;;;;;;;;;;;;;;;5004583;28;19917;-75
2024/01/16 10:23:34;;;;;;;;;;;;;;;;;;5016701;28;20482;-73
2024/01/16 10:26:01;;;;;;;;;;;;;;;;;;5019379;28;19916;-73
2024/01/16 10:28:29;;;;;;;;;;;;;;;;;;5001868;28;19967;-76
2024/01/16 10:30:55;;;;;;;;;;;;;;;;;;5054768;28;20316;-75
2024/01/16 10:33:20;;;;;;;;;;;;;;;;;;5039712;28;19919;-81
2024/01/16 10:35:48;;;;;;;;;;;;;;;;;;5026723;28;19920;-79
2024/01/16 10:38:18;;;;;;;;;;;;;;;;;;5024625;28;20399;-79
2024/01/16 10:40:46;;;;;;;;;;;;;;;;;;5023431;28;19942;-75
2024/01/16 10:43:12;;;;;;;;;;;;;;;;;;5005986;28;19925;-79
2024/01/16 10:45:37;;;;;;;;;;;;;;;;;;5027142;28;20016;-76
2024/01/16 10:48:08;;;;;;;;;;;;;;;;;;5040524;28;19962;-77
2024/01/16 10:50:36;;;;;;;;;;;;;;;;;;5024019;28;20007;-79
2024/01/16 10:53:01;;;;;;;;;;;;;;;;;;5025218;28;19954;-77
2024/01/16 10:55:29;;;;;;;;;;;;;;;;;;5007101;28;20796;-78
2024/01/16 10:57:56;;;;;;;;;;;;;;;;;;5041603;28;19924;-78
2024/01/16 11:00:22;;;;;;;;;;;;;;;;;;5028799;28;19920;-80
2024/01/16 11:02:52;;;;;;;;;;;;;;;;;;5025270;28;19962;-76
2024/01/16 11:05:20;;;;;;;;;;;;;;;;;;5023503;28;20356;-78
2024/01/16 11:07:46;;;;;;;;;;;;;;;;;;5022748;28;19932;-79
2024/01/16 11:10:14;;;;;;;;;;;;;;;;;;5028406;28;19921;-79
2024/01/16 11:12:41;;;;;;;;;;;;;;;;;;5026023;28;19917;-79
2024/01/16 11:15:07;;;;;;;;;;;;;;;;;;5042786;28;19921;-80
2024/01/16 11:17:33;;;;;;;;;;;;;;;;;;5024509;28;19916;-77
2024/01/16 11:19:58;;;;;;;;;;;;;;;;;;5005308;28;19917;-78
2024/01/16 11:22:28;;;;;;;;;;;;;;;;;;5022153;28;20103;-76
2024/01/16 11:24:56;;;;;;;;;;;;;;;;;;5018718;28;20020;-74
2024/01/16 11:27:24;;;;;;;;;;;;;;;;;;5005938;28;20335;-72
2024/01/16 11:29:49;;;;;;;;;;;;;;;;;;5008438;28;19917;-73
2024/01/16 11:32:15;;;;;;;;;;;;;;;;;;5026843;28;19932;-73
2024/01/16 11:34:40;;;;;;;;;;;;;;;;;;5005447;28;19952;-71
2024/01/16 11:37:05;;;;;;;;;;;;;;;;;;5025591;28;19928;-72
2024/01/16 11:39:31;;;;;;;;;;;;;;;;;;5023306;28;19917;-72
2024/01/16 11:41:59;;;;;;;;;;;;;;;;;;5026726;28;19921;-72
2024/01/16 11:44:24;;;;;;;;;;;;;;;;;;5026312;28;19917;-69
2024/01/16 11:46:53;;;;;;;;;;;;;;;;;;5006300;28;20443;-71
2024/01/16 11:49:18;;;;;;;;;;;;;;;;;;5008239;28;20058;-73
2024/01/16 11:51:44;;;;;;;;;;;;;;;;;;5021472;28;19940;-74
2024/01/16 11:54:12;;;;;;;;;;;;;;;;;;5023812;28;19921;-72
2024/01/16 11:56:40;;;;;;;;;;;;;;;;;;5023862;28;19916;-71
2024/01/16 12:02:21;;;;;;;;;;;;;;;;;;5026396;28;20051;-73
2024/01/16 12:04:47;;;;;;;;;;;;;;;;;;5007670;28;19921;-73
2024/01/16 12:07:17;;;;;;;;;;;;;;;;;;5007677;28;21837;-72
2024/01/16 12:09:42;;;;;;;;;;;;;;;;;;5024127;28;20095;-71
2024/01/16 12:12:07;;;;;;;;;;;;;;;;;;5006835;28;19920;-72
2024/01/16 12:14:33;;;;;;;;;;;;;;;;;;5021635;28;20608;-71
2024/01/16 12:16:58;;;;;;;;;;;;;;;;;;5020643;28;20641;-73
2024/01/16 12:19:26;;;;;;;;;;;;;;;;;;5026585;28;20540;-72
2024/01/16 12:21:57;;;;;;;;;;;;;;;;;;5023317;28;20041;-72
2024/01/16 12:24:22;;;;;;;;;;;;;;;;;;5023049;28;19921;-73
2024/01/16 12:26:48;;;;;;;;;;;;;;;;;;5019082;28;20377;-74
2024/01/16 12:29:13;;;;;;;;;;;;;;;;;;5039383;28;19913;-73
2024/01/16 12:31:41;;;;;;;;;;;;;;;;;;5024767;28;20121;-74
2024/01/16 12:34:07;;;;;;;;;;;;;;;;;;5036953;28;19927;-73
2024/01/16 12:36:32;;;;;;;;;;;;;;;;;;5056701;28;19917;-74
2024/01/16 12:38:57;;;;;;;;;;;;;;;;;;5024181;28;20865;-75
2024/01/16 12:41:23;;;;;;;;;;;;;;;;;;5022158;28;19917;-75
2024/01/16 12:43:48;;;;;;;;;;;;;;;;;;5023644;28;20302;-74
2024/01/16 12:46:13;;;;;;;;;;;;;;;;;;5022390;28;19917;-73
2024/01/16 12:48:41;;;;;;;;;;;;;;;;;;5023458;28;19917;-74
2024/01/16 12:51:06;;;;;;;;;;;;;;;;;;5024275;28;19927;-73
2024/01/16 12:53:36;;;;;;;;;;;;;;;;;;5024020;28;20050;-74
2024/01/16 12:56:05;;;;;;;;;;;;;;;;;;5056667;28;19917;-73
2024/01/16 12:58:30;;;;;;;;;;;;;;;;;;5021958;28;20286;-73
2024/01/16 13:00:55;;;;;;;;;;;;;;;;;;5024263;28;19917;-72
2024/01/16 13:03:21;;;;;;;;;;;;;;;;;;5024940;28;19964;-71
2024/01/16 13:05:51;;;;;;;;;;;;;;;;;;5022202;28;19917;-72
2024/01/16 13:08:16;;;;;;;;;;;;;;;;;;5055190;28;19913;-73
2024/01/16 13:10:44;;;;;;;;;;;;;;;;;;5023410;28;19927;-72
2024/01/16 13:13:13;;;;;;;;;;;;;;;;;;5040541;28;19920;-73
2024/01/16 13:15:38;;;;;;;;;;;;;;;;;;5037422;28;20377;-72
2024/01/16 13:18:05;;;;;;;;;;;;;;;;;;5022623;28;19917;-71
2024/01/16 13:20:30;;;;;;;;;;;;;;;;;;5021807;28;20038;-73
2024/01/16 13:22:56;;;;;;;;;;;;;;;;;;5033856;28;20454;-72
2024/01/16 13:25:21;;;;;;;;;;;;;;;;;;5036815;28;20369;-73
2024/01/16 13:27:47;;;;;;;;;;;;;;;;;;5002950;28;19921;-71
2024/01/16 13:30:17;;;;;;;;;;;;;;;;;;5023075;28;20067;-70
2024/01/16 13:32:43;;;;;;;;;;;;;;;;;;5024040;28;19921;-71
2024/01/16 13:35:08;;;;;;;;;;;;;;;;;;5003974;28;19928;-72
2024/01/16 13:37:40;;;;;;;;;;;;;;;;;;5018710;28;19983;-71
2024/01/16 13:40:11;;;;;;;;;;;;;;;;;;5036725;28;19921;-71
2024/01/16 13:42:36;;;;;;;;;;;;;;;;;;5023070;28;20048;-72
2024/01/16 13:45:05;;;;;;;;;;;;;;;;;;5037057;28;20134;-73
2024/01/16 13:47:30;;;;;;;;;;;;;;;;;;5039908;28;19921;-71
2024/01/16 13:49:56;;;;;;;;;;;;;;;;;;5017851;28;20044;-71
2024/01/16 13:52:21;;;;;;;;;;;;;;;;;;5016223;28;20516;-72
2024/01/16 13:54:46;;;;;;;;;;;;;;;;;;5023237;28;19944;-73
2024/01/16 13:57:12;;;;;;;;;;;;;;;;;;5021554;28;19920;-74
2024/01/16 13:59:38;;;;;;;;;;;;;;;;;;5021759;28;19928;-73
2024/01/16 14:02:05;;;;;;;;;;;;;;;;;;5019889;28;19921;-74
2024/01/16 14:04:30;;;;;;;;;;;;;;;;;;5002832;28;20330;-74
2024/01/16 14:06:55;;;;;;;;;;;;;;;;;;5018312;28;19916;-75
2024/01/16 14:09:20;;;;;;;;;;;;;;;;;;5019244;28;19921;-74
2024/01/16 14:11:46;;;;;;;;;;;;;;;;;;5007930;28;19943;-73
2024/01/16 14:14:11;;;;;;;;;;;;;;;;;;5002387;28;19975;-73
2024/01/16 14:16:39;;;;;;;;;;;;;;;;;;5027536;28;19920;-74
2024/01/16 14:19:05;;;;;;;;;;;;;;;;;;5033541;28;19928;-73
2024/01/16 14:21:33;;;;;;;;;;;;;;;;;;5030806;28;19920;-75
2024/01/16 14:23:58;;;;;;;;;;;;;;;;;;5013810;28;19959;-74
2024/01/16 14:26:23;;;;;;;;;;;;;;;;;;5019787;28;19964;-74
2024/01/16 14:28:52;;;;;;;;;;;;;;;;;;5019397;28;19913;-75
2024/01/16 14:31:17;;;;;;;;;;;;;;;;;;5018447;28;19925;-74
2024/01/16 14:33:42;;;;;;;;;;;;;;;;;;5017332;28;19984;-73
2024/01/16 14:36:08;;;;;;;;;;;;;;;;;;5018006;28;19925;-74
2024/01/16 14:38:35;;;;;;;;;;;;;;;;;;5029129;28;19976;-75
2024/01/16 14:41:01;;;;;;;;;;;;;;;;;;5020847;28;19924;-73
2024/01/16 14:43:26;;;;;;;;;;;;;;;;;;5005097;28;19921;-74
2024/01/16 14:45:51;;;;;;;;;;;;;;;;;;5017404;28;20395;-75
2024/01/16 14:48:17;;;;;;;;;;;;;;;;;;5022682;28;20466;-75
2024/01/16 14:50:43;;;;;;;;;;;;;;;;;;5055771;28;20141;-75
2024/01/16 14:56:24;;;;;;;;;;;;;;;;;;5021024;28;20599;-77
2024/01/16 14:58:50;;;;;;;;;;;;;;;;;;5036232;28;20383;-78
2024/01/16 15:01:16;;;;;;;;;;;;;;;;;;5024134;28;19920;-77
2024/01/16 15:03:42;;;;;;;;;;;;;;;;;;5023461;28;19924;-77
2024/01/16 15:06:07;;;;;;;;;;;;;;;;;;5043451;28;19921;-77
2024/01/16 15:08:33;;;;;;;;;;;;;;;;;;5028008;28;19921;-78
2024/01/16 15:11:00;;;;;;;;;;;;;;;;;;5042892;28;20618;-79
2024/01/16 15:13:26;;;;;;;;;;;;;;;;;;5029460;28;19923;-80
2024/01/16 15:15:53;;;;;;;;;;;;;;;;;;5028238;28;20361;-81
2024/01/16 15:18:19;;;;;;;;;;;;;;;;;;5046553;28;19971;-81
2024/01/16 15:20:44;;;;;;;;;;;;;;;;;;5024831;28;20372;-80
2024/01/16 15:23:10;;;;;;;;;;;;;;;;;;5031067;28;19962;-78
2024/01/16 15:25:35;;;;;;;;;;;;;;;;;;5047818;28;19996;-77
2024/01/16 15:28:01;;;;;;;;;;;;;;;;;;5014196;28;19928;-81
2024/01/16 15:30:32;;;;;;;;;;;;;;;;;;5031227;28;19920;-82
2024/01/16 15:32:57;;;;;;;;;;;;;;;;;;5033524;28;19925;-82
2024/01/16 15:35:23;;;;;;;;;;;;;;;;;;5014494;28;20031;-81
2024/01/16 15:37:48;;;;;;;;;;;;;;;;;;5041522;28;19917;-80
2024/01/16 15:40:14;;;;;;;;;;;;;;;;;;5065177;28;19981;-80
2024/01/16 15:43:01;;;;;;;;;;;;;;;;;;5051804;28;19917;-81
2024/01/16 15:45:26;;;;;;;;;;;;;;;;;;5066323;28;19921;-81
2024/01/16 15:47:52;;;;;;;;;;;;;;;;;;5051468;28;19925;-81
2024/01/16 15:50:20;;;;;;;;;;;;;;;;;;5047603;28;19978;-80
2024/01/16 15:52:49;;;;;;;;;;;;;;;;;;5046883;28;19967;-76
2024/01/16 15:55:14;;;;;;;;;;;;;;;;;;5047655;28;19917;-81
2024/01/16 15:57:39;;;;;;;;;;;;;;;;;;5046210;28;20160;-79
2024/01/16 16:00:09;;;;;;;;;;;;;;;;;;5041038;28;19917;-80
2024/01/16 16:02:34;;;;;;;;;;;;;;;;;;5037219;28;19917;-79
2024/01/16 16:04:59;;;;;;;;;;;;;;;;;;5028241;28;19940;-78
2024/01/16 16:07:25;;;;;;;;;;;;;;;;;;5022483;28;19921;-75
2024/01/16 16:09:55;;;;;;;;;;;;;;;;;;5021927;28;19921;-77
2024/01/16 16:12:20;;;;;;;;;;;;;;;;;;5022172;28;20055;-75
2024/01/16 16:14:46;;;;;;;;;;;;;;;;;;5000953;28;19970;-75
2024/01/16 16:17:11;;;;;;;;;;;;;;;;;;5013492;28;21665;-76
2024/01/16 16:19:36;;;;;;;;;;;;;;;;;;5015963;28;19970;-75
2024/01/16 16:22:02;;;;;;;;;;;;;;;;;;5034660;28;20399;-75
2024/01/16 16:24:27;;;;;;;;;;;;;;;;;;5017257;28;20361;-75
2024/01/16 16:26:55;;;;;;;;;;;;;;;;;;5015498;28;19949;-77
2024/01/16 16:29:20;;;;;;;;;;;;;;;;;;5019617;28;20388;-74
2024/01/16 16:31:48;;;;;;;;;;;;;;;;;;5016555;28;19925;-77
2024/01/16 16:34:18;;;;;;;;;;;;;;;;;;5011433;28;20008;-77
2024/01/16 16:36:43;;;;;;;;;;;;;;;;;;5021712;28;20098;-78
2024/01/16 16:39:08;;;;;;;;;;;;;;;;;;5019683;28;20565;-76
2024/01/16 16:41:34;;;;;;;;;;;;;;;;;;5017130;28;19983;-75
2024/01/16 16:43:59;;;;;;;;;;;;;;;;;;5000936;28;20426;-76
2024/01/16 16:46:25;;;;;;;;;;;;;;;;;;5021523;28;19966;-76
2024/01/16 16:48:51;;;;;;;;;;;;;;;;;;5035062;28;19921;-75
2024/01/16 16:51:16;;;;;;;;;;;;;;;;;;5018663;28;19947;-74
2024/01/16 16:53:44;;;;;;;;;;;;;;;;;;5013927;28;19970;-74
2024/01/16 16:56:12;;;;;;;;;;;;;;;;;;5020699;28;20059;-75
2024/01/16 16:58:38;;;;;;;;;;;;;;;;;;5014177;28;20672;-76
2024/01/16 17:01:03;;;;;;;;;;;;;;;;;;5019126;28;20003;-72
2024/01/16 17:03:34;;;;;;;;;;;;;;;;;;5015283;28;20376;-72